Time;durP1;ratioP1;P1;durP2;ratioP2;P2;SDS_P1;SDS_P2;PMS_P1;PMS_P2;Temp;Humidity;BMP_temperature;BMP_pressure;BME280_temperature;BME280_humidity;BME280_pressure;Samples;Min_cycle;Max_cycle;Signal;HPM_P1;HPM_P2
2022/10/02 00:03:03;;;;;;;8.80;4.70;;;;;;;11.19;81.70;99086.98;215005;1276;140478;-72
2022/10/02 00:08:26;;;;;;;10.20;8.50;;;;;;;11.21;81.52;99088.08;214230;1276;141420;-67
2022/10/02 00:13:57;;;;;;;6.70;6.20;;;;;;;11.23;81.54;99085.80;213408;1276;141454;-70
2022/10/02 00:19:00;;;;;;;24.80;22.70;;;;;;;11.21;81.36;99088.07;212938;1276;142044;-69
2022/10/02 00:24:07;;;;;;;5.50;5.10;;;;;;;11.12;81.54;99087.94;214903;1276;140406;-70
2022/10/02 00:29:43;;;;;;;8.80;6.80;;;;;;;11.05;81.57;99088.29;213820;1276;140368;-70
2022/10/02 00:35:12;;;;;;;12.70;9.50;;;;;;;11.03;81.64;99098.62;214151;1276;142067;-71
2022/10/02 00:40:36;;;;;;;7.90;6.90;;;;;;;11.06;81.93;99100.79;213379;1276;140397;-70
2022/10/02 00:46:10;;;;;;;7.60;6.90;;;;;;;11.08;82.13;99104.54;213411;1276;140282;-70
2022/10/02 00:51:34;;;;;;;8.90;5.40;;;;;;;11.09;81.96;99108.29;213056;1276;141121;-68
2022/10/02 00:57:02;;;;;;;6.50;5.30;;;;;;;11.07;82.12;99113.55;212960;1276;141219;-67
2022/10/02 01:02:30;;;;;;;32.10;22.90;;;;;;;11.07;82.14;99121.81;212689;1276;140596;-66
2022/10/02 01:07:41;;;;;;;12.80;9.30;;;;;;;11.03;82.32;99128.02;213672;1276;142178;-68
2022/10/02 01:12:44;;;;;;;7.50;6.40;;;;;;;11.00;82.16;99131.09;213186;1276;142193;-68
2022/10/02 01:17:50;;;;;;;13.60;8.00;;;;;;;11.02;82.54;99136.06;213022;1276;140825;-66
2022/10/02 01:23:29;;;;;;;11.80;8.40;;;;;;;11.10;82.61;99139.88;214687;1276;141348;-68
2022/10/02 01:28:31;;;;;;;10.00;7.00;;;;;;;11.13;82.43;99143.70;213948;1276;140650;-68
2022/10/02 01:33:35;;;;;;;9.30;6.40;;;;;;;11.17;82.47;99148.27;214452;1276;140571;-68
2022/10/02 01:38:40;;;;;;;7.20;6.30;;;;;;;11.19;82.37;99146.90;215614;1275;141091;-68
2022/10/02 01:43:51;;;;;;;9.10;7.60;;;;;;;11.23;82.42;99151.27;215194;1276;140103;-67
2022/10/02 01:49:02;;;;;;;12.70;10.60;;;;;;;11.28;82.46;99153.40;215684;1277;141108;-67
2022/10/02 01:54:08;;;;;;;6.90;6.10;;;;;;;11.32;82.16;99154.63;215881;1276;140828;-67
2022/10/02 01:59:30;;;;;;;10.10;5.80;;;;;;;11.31;82.22;99163.39;215725;1276;140058;-66
2022/10/02 02:04:44;;;;;;;7.40;6.40;;;;;;;11.31;82.30;99162.38;215790;1276;150635;-66
2022/10/02 02:10:17;;;;;;;6.90;6.30;;;;;;;11.38;82.33;99168.20;214971;1276;140941;-69
2022/10/02 02:15:52;;;;;;;10.00;6.60;;;;;;;11.47;82.48;99172.50;214667;1276;140246;-67
2022/10/02 02:21:07;;;;;;;7.90;6.40;;;;;;;11.55;82.45;99182.56;215196;1276;141950;-67
2022/10/02 02:26:12;;;;;;;13.00;7.00;;;;;;;11.48;82.42;99184.14;214398;1276;140095;-66
2022/10/02 02:31:25;;;;;;;18.50;7.90;;;;;;;11.39;82.38;99188.70;213535;1276;140483;-67
2022/10/02 02:36:35;;;;;;;8.00;7.20;;;;;;;11.33;82.57;99189.08;213504;1276;141442;-66
2022/10/02 02:41:47;;;;;;;8.40;6.70;;;;;;;11.31;82.77;99192.54;214213;1277;141682;-67
2022/10/02 02:47:16;;;;;;;8.70;7.50;;;;;;;11.27;82.72;99197.35;213693;1274;139982;-68
2022/10/02 02:52:23;;;;;;;;;;;;;;;11.26;83.17;99198.58;213712;1276;139952;-66
2022/10/02 02:57:41;;;;;;;7.90;7.10;;;;;;;11.29;83.30;99198.39;214767;1276;127419;-67
2022/10/02 03:02:43;;;;;;;7.20;6.60;;;;;;;11.31;83.29;99205.55;214013;1276;140653;-67
2022/10/02 03:08:04;;;;;;;7.80;7.00;;;;;;;11.34;83.20;99205.89;213079;1275;141365;-66
2022/10/02 03:13:15;;;;;;;6.80;6.00;;;;;;;11.31;83.24;99213.23;214035;1276;141273;-67
2022/10/02 03:18:43;;;;;;;7.00;6.40;;;;;;;11.29;83.41;99215.15;214471;1276;141283;-67
2022/10/02 03:23:57;;;;;;;10.10;6.20;;;;;;;11.28;83.49;99221.02;213398;1276;140010;-67
2022/10/02 03:29:04;;;;;;;6.90;6.20;;;;;;;11.31;83.40;99222.61;213599;1276;141433;-67
2022/10/02 03:34:08;;;;;;;;;;;;;;;11.31;83.37;99224.08;213383;1276;140334;-66
2022/10/02 03:39:11;;;;;;;6.20;5.40;;;;;;;11.24;83.89;99221.55;216637;1276;127409;-67
2022/10/02 03:44:27;;;;;;;8.50;6.00;;;;;;;11.22;83.90;99225.95;213735;1276;140791;-67
2022/10/02 03:49:29;;;;;;;6.30;5.60;;;;;;;11.25;84.07;99227.64;215939;1276;140890;-67
2022/10/02 03:54:37;;;;;;;4.80;4.40;;;;;;;11.31;83.80;99231.10;216019;1276;140566;-67
2022/10/02 03:59:50;;;;;;;7.30;6.00;;;;;;;11.31;83.92;99234.27;213123;1276;140550;-66
2022/10/02 04:05:09;;;;;;;5.30;4.90;;;;;;;11.35;84.22;99244.05;214450;1276;140257;-67
2022/10/02 04:10:46;;;;;;;5.60;5.10;;;;;;;11.39;84.09;99246.66;215356;1277;140764;-66
2022/10/02 04:15:59;;;;;;;4.90;4.60;;;;;;;11.35;84.30;99250.51;214108;1276;141238;-67
2022/10/02 04:21:29;;;;;;;9.20;4.60;;;;;;;11.29;84.27;99264.13;214747;1277;140526;-69
2022/10/02 04:26:40;;;;;;;5.90;5.40;;;;;;;11.24;84.19;99278.96;214016;1276;140954;-70
2022/10/02 04:31:51;;;;;;;4.30;3.20;;;;;;;11.23;84.48;99282.63;213496;1276;140463;-69
2022/10/02 04:37:35;;;;;;;4.20;3.40;;;;;;;11.19;84.32;99292.02;213311;1276;141764;-68
2022/10/02 04:43:06;;;;;;;15.80;4.20;;;;;;;11.14;84.52;99304.23;213188;1276;140313;-67
2022/10/02 04:48:15;;;;;;;5.10;4.50;;;;;;;11.18;84.55;99309.25;213469;1277;140896;-68
2022/10/02 04:53:48;;;;;;;4.00;3.70;;;;;;;11.14;84.71;99315.55;213139;1276;140307;-69
2022/10/02 04:59:01;;;;;;;4.20;3.10;;;;;;;11.16;84.65;99321.06;213175;1276;140405;-68
2022/10/02 05:04:15;;;;;;;4.90;3.50;;;;;;;11.14;84.61;99325.95;214106;1276;235158;-68
2022/10/02 05:09:36;;;;;;;3.10;2.80;;;;;;;11.14;84.84;99332.89;214218;1276;140138;-69
2022/10/02 05:15:23;;;;;;;3.90;2.70;;;;;;;11.16;84.38;99337.55;214842;1276;141027;-69
2022/10/02 05:21:00;;;;;;;2.90;2.60;;;;;;;11.18;84.59;99345.59;213595;1283;140693;-69
2022/10/02 05:26:30;;;;;;;4.30;3.50;;;;;;;11.25;84.56;99342.27;213982;1276;140380;-69
2022/10/02 05:31:44;;;;;;;3.70;2.50;;;;;;;11.25;84.35;99342.27;214266;1276;140729;-67
2022/10/02 05:36:58;;;;;;;5.20;3.00;;;;;;;11.31;84.38;99346.48;214316;1276;141001;-70
2022/10/02 05:42:17;;;;;;;4.50;2.70;;;;;;;11.41;84.50;99352.74;215189;1276;236075;-67
2022/10/02 05:47:29;;;;;;;2.40;1.80;;;;;;;11.47;84.24;99362.90;215741;1275;141609;-69
2022/10/02 05:52:41;;;;;;;3.80;3.40;;;;;;;11.57;84.24;99369.33;215779;1276;140164;-71
2022/10/02 05:57:57;;;;;;;3.60;2.50;;;;;;;11.67;83.70;99375.94;215527;1276;141249;-69
2022/10/02 06:03:17;;;;;;;4.10;2.40;;;;;;;11.75;83.62;99383.61;215719;1276;140514;-69
2022/10/02 06:08:40;;;;;;;7.80;2.80;;;;;;;11.81;83.36;99388.25;215766;1276;141637;-69
2022/10/02 06:13:52;;;;;;;3.70;1.90;;;;;;;11.97;83.34;99388.08;215158;1276;140518;-69
2022/10/02 06:19:17;;;;;;;3.80;2.00;;;;;;;12.08;83.01;99387.02;213224;1276;140332;-69
2022/10/02 06:24:33;;;;;;;7.70;1.50;;;;;;;12.18;82.60;99384.14;214599;1276;139984;-70
2022/10/02 06:29:48;;;;;;;2.20;1.20;;;;;;;12.15;82.47;99390.23;213991;1276;140973;-68
2022/10/02 06:34:52;;;;;;;3.30;1.60;;;;;;;12.14;82.09;99390.34;213223;1276;141795;-68
2022/10/02 06:40:11;;;;;;;7.90;2.10;;;;;;;12.09;81.86;99392.11;213931;1276;142538;-69
2022/10/02 06:45:28;;;;;;;8.10;2.80;;;;;;;12.10;81.82;99398.05;213458;1276;141899;-67
2022/10/02 06:50:46;;;;;;;4.60;1.20;;;;;;;12.10;81.46;99398.11;213995;1276;141679;-68
2022/10/02 06:55:54;;;;;;;6.30;1.50;;;;;;;12.16;81.73;99400.15;213393;1276;141324;-68
2022/10/02 07:01:15;;;;;;;3.90;1.80;;;;;;;12.17;81.70;99404.54;213112;1276;141134;-71
2022/10/02 07:06:29;;;;;;;10.30;2.30;;;;;;;12.22;81.73;99410.09;214930;1276;141248;-69
2022/10/02 07:11:44;;;;;;;4.00;2.00;;;;;;;12.28;81.53;99413.11;215060;1276;141089;-72
2022/10/02 07:17:08;;;;;;;5.00;2.30;;;;;;;12.37;81.34;99415.30;215019;1276;140275;-68
2022/10/02 07:22:40;;;;;;;8.90;2.80;;;;;;;12.46;81.27;99419.60;213826;1276;140583;-67
2022/10/02 07:27:59;;;;;;;5.80;2.00;;;;;;;12.59;81.00;99424.51;213546;1277;141205;-69
2022/10/02 07:33:35;;;;;;;5.00;2.30;;;;;;;12.70;80.92;99422.41;213245;1276;140767;-70
2022/10/02 07:38:54;;;;;;;7.70;2.30;;;;;;;12.96;80.60;99428.05;212955;1276;140532;-68
2022/10/02 07:44:13;;;;;;;4.20;2.80;;;;;;;13.19;80.55;99429.98;215750;1276;140511;-71
2022/10/02 07:49:29;;;;;;;;;;;;;;;13.32;79.94;99433.92;215854;1276;140151;-70
2022/10/02 07:54:34;;;;;;;5.40;2.50;;;;;;;13.33;79.55;99431.67;216524;1276;126701;-68
2022/10/02 07:59:42;;;;;;;4.30;2.40;;;;;;;13.28;78.73;99430.73;214820;1276;141357;-67
2022/10/02 08:04:46;;;;;;;4.30;2.30;;;;;;;13.28;78.81;99439.83;214284;1276;141542;-67
2022/10/02 08:09:57;;;;;;;9.80;3.30;;;;;;;13.40;79.14;99437.66;213264;1276;141226;-68
2022/10/02 08:15:04;;;;;;;7.70;3.80;;;;;;;13.57;78.77;99435.85;212898;1276;141825;-68
2022/10/02 08:20:37;;;;;;;9.30;3.10;;;;;;;13.75;78.41;99435.34;213584;1276;142694;-69
2022/10/02 08:26:22;;;;;;;5.30;3.10;;;;;;;13.83;77.87;99436.75;213885;1276;140395;-68
2022/10/02 08:31:25;;;;;;;3.30;2.00;;;;;;;13.88;77.49;99438.16;213372;1276;142669;-69
2022/10/02 08:36:57;;;;;;;10.40;2.90;;;;;;;13.96;77.41;99435.84;213389;1276;142351;-69
2022/10/02 08:42:30;;;;;;;5.20;2.20;;;;;;;14.15;77.31;99437.48;213767;1275;141068;-70
2022/10/02 08:48:05;;;;;;;2.70;1.90;;;;;;;14.38;76.72;99439.55;213567;1276;140603;-69
2022/10/02 08:53:35;;;;;;;14.40;3.00;;;;;;;14.70;76.67;99431.50;213167;1277;142025;-70
2022/10/02 08:59:08;;;;;;;4.00;2.40;;;;;;;15.33;76.49;99428.39;213914;1276;140948;-69
2022/10/02 09:04:37;;;;;;;8.60;2.50;;;;;;;15.78;75.36;99425.83;213212;1276;141660;-71
2022/10/02 09:09:45;;;;;;;8.00;3.80;;;;;;;15.92;73.98;99422.42;213608;1276;140886;-77
2022/10/02 09:14:57;;;;;;;2.40;2.00;;;;;;;15.79;73.29;99419.81;213718;1276;141659;-74
2022/10/02 09:20:22;;;;;;;2.60;1.90;;;;;;;15.74;72.78;99421.92;213254;1276;141588;-71
2022/10/02 09:25:31;;;;;;;4.30;2.10;;;;;;;15.83;72.46;99424.73;214277;1274;142831;-68
2022/10/02 09:30:51;;;;;;;6.50;2.80;;;;;;;16.00;72.14;99420.66;215459;1276;142243;-71
2022/10/02 09:36:09;;;;;;;7.10;3.10;;;;;;;16.00;71.60;99427.16;214712;1276;139618;-70
2022/10/02 09:41:12;;;;;;;4.70;2.00;;;;;;;15.80;70.95;99431.20;214237;1276;140952;-69
2022/10/02 09:46:41;;;;;;;4.30;2.20;;;;;;;15.59;70.79;99428.10;215665;1276;141711;-75
2022/10/02 09:52:36;;;;;;;4.30;2.00;;;;;;;15.73;71.17;99425.16;215682;1275;140772;-72
2022/10/02 09:58:04;;;;;;;1.60;1.40;;;;;;;16.11;71.03;99422.38;211796;1282;295732;-70
2022/10/02 10:03:17;;;;;;;4.30;1.90;;;;;;;16.10;70.13;99421.83;215098;1276;141421;-70
2022/10/02 10:08:33;;;;;;;5.00;1.90;;;;;;;15.67;69.33;99435.81;213869;1276;140203;-71
2022/10/02 10:13:54;;;;;;;10.70;5.00;;;;;;;15.49;69.73;99434.48;213481;1276;140595;-72
2022/10/02 10:19:24;;;;;;;5.50;2.40;;;;;;;15.54;69.65;99430.21;214079;1276;140658;-69
2022/10/02 10:25:04;;;;;;;8.80;3.00;;;;;;;15.48;69.60;99421.73;214351;1276;162831;-72
2022/10/02 10:30:52;;;;;;;4.90;2.40;;;;;;;15.33;69.53;99424.95;213710;1276;140596;-71
2022/10/02 10:38:31;;;;;;;5.60;3.20;;;;;;;15.03;69.69;99420.25;212917;1277;140133;-72
2022/10/02 10:41:35;;;;;;;;;;;;;;;14.86;69.94;99414.70;213435;1276;141126;-71
2022/10/02 10:46:55;;;;;;;4.40;3.60;;;;;;;14.65;70.40;99408.75;214389;1276;127031;-71
2022/10/02 10:52:12;;;;;;;5.30;2.60;;;;;;;14.57;71.13;99409.35;213079;1274;142037;-71
2022/10/02 10:57:26;;;;;;;;;;;;;;;14.63;71.43;99404.42;214153;1277;140510;-71
2022/10/02 11:02:57;;;;;;;5.70;3.40;;;;;;;14.61;71.74;99399.86;213637;1277;131034;-71
2022/10/02 11:08:34;;;;;;;3.70;2.90;;;;;;;14.54;71.54;99392.88;213254;1276;140656;-71
2022/10/02 11:13:54;;;;;;;5.70;4.70;;;;;;;14.52;71.90;99384.56;213571;1276;140080;-70
2022/10/02 11:19:14;;;;;;;3.00;2.60;;;;;;;14.56;72.24;99383.49;214270;1276;140442;-70
2022/10/02 11:24:56;;;;;;;5.90;3.00;;;;;;;14.46;71.78;99381.48;214533;1276;140359;-72
2022/10/02 11:30:12;;;;;;;4.30;2.60;;;;;;;14.37;72.48;99375.86;213902;1276;139448;-71
2022/10/02 11:35:22;;;;;;;2.00;1.90;;;;;;;14.66;73.03;99378.92;214821;1274;140047;-70
2022/10/02 11:40:58;;;;;;;5.80;3.00;;;;;;;15.08;73.58;99378.09;215663;1276;140750;-72
2022/10/02 11:46:20;;;;;;;6.40;3.60;;;;;;;15.51;73.67;99369.23;215712;1275;139983;-73
2022/10/02 11:52:03;;;;;;;14.90;8.10;;;;;;;15.95;72.80;99361.76;215762;1275;141150;-74
2022/10/02 11:57:13;;;;;;;11.80;5.60;;;;;;;15.96;71.88;99360.67;214629;1276;141063;-73
2022/10/02 12:02:24;;;;;;;6.90;3.10;;;;;;;15.83;71.69;99362.52;213522;1276;142705;-72
2022/10/02 12:07:44;;;;;;;7.30;3.70;;;;;;;15.53;71.44;99357.52;214367;1276;140488;-72
2022/10/02 12:13:08;;;;;;;4.30;2.50;;;;;;;15.73;72.13;99358.92;213913;1275;142772;-71
2022/10/02 12:18:20;;;;;;;6.60;3.70;;;;;;;16.21;72.06;99360.56;214363;1276;142405;-72
2022/10/02 12:29:14;;;;;;;7.50;3.20;;;;;;;16.20;71.04;99355.73;214089;1277;142166;-72
2022/10/02 12:34:42;;;;;;;3.70;3.20;;;;;;;16.16;70.78;99357.55;213151;1275;140966;-72
2022/10/02 12:39:57;;;;;;;3.10;2.40;;;;;;;16.09;70.21;99364.89;213240;1276;139958;-73
2022/10/02 12:45:32;;;;;;;6.80;3.00;;;;;;;15.80;69.84;99356.38;212783;1276;142143;-71
2022/10/02 12:51:22;;;;;;;3.60;2.40;;;;;;;15.52;69.70;99356.41;213292;1276;140787;-69
2022/10/02 12:56:46;;;;;;;6.10;3.00;;;;;;;15.59;69.84;99346.23;213813;1274;142901;-73
2022/10/02 13:02:26;;;;;;;3.00;2.50;;;;;;;16.06;70.28;99333.18;214186;1276;142396;-74
2022/10/02 13:07:54;;;;;;;4.00;2.30;;;;;;;16.52;69.45;99333.35;214775;1276;140992;-72
2022/10/02 13:13:34;;;;;;;4.80;1.70;;;;;;;16.97;68.72;99328.02;213306;1276;143820;-72
2022/10/02 13:19:00;;;;;;;3.80;1.90;;;;;;;17.17;67.63;99323.20;213559;1276;141826;-72
2022/10/02 13:24:13;;;;;;;1.60;1.50;;;;;;;17.28;67.24;99318.06;213111;1276;141361;-72
2022/10/02 13:29:30;;;;;;;4.50;2.30;;;;;;;17.19;66.28;99310.58;215593;1276;141251;-72
2022/10/02 13:34:49;;;;;;;3.90;2.30;;;;;;;16.69;65.78;99308.98;215636;1275;139365;-72
2022/10/02 13:40:17;;;;;;;2.20;1.80;;;;;;;16.33;65.87;99300.70;215685;1276;139857;-71
2022/10/02 13:45:34;;;;;;;11.20;6.50;;;;;;;16.41;66.07;99301.33;215773;1274;140033;-72
2022/10/02 13:51:04;;;;;;;7.40;4.80;;;;;;;16.49;66.05;99301.09;215600;1276;141685;-71
2022/10/02 13:56:30;;;;;;;3.20;1.90;;;;;;;16.37;65.82;99295.44;215027;1275;140624;-71
2022/10/02 14:01:45;;;;;;;4.80;3.30;;;;;;;15.98;65.62;99285.39;214574;1276;140072;-72
2022/10/02 14:07:13;;;;;;;9.00;3.40;;;;;;;15.67;65.76;99284.88;213811;1276;140610;-71
2022/10/02 14:12:21;;;;;;;3.50;1.90;;;;;;;15.64;66.13;99281.50;214327;1275;140796;-72
2022/10/02 14:17:57;;;;;;;5.30;2.90;;;;;;;15.85;66.24;99273.41;214532;1275;141170;-72
2022/10/02 14:23:09;;;;;;;5.60;3.00;;;;;;;15.94;66.18;99269.35;213660;1276;140467;-71
2022/10/02 14:28:37;;;;;;;5.10;2.10;;;;;;;15.89;66.07;99265.85;214171;1276;140486;-70
2022/10/02 14:34:05;;;;;;;6.40;2.80;;;;;;;15.83;66.45;99265.41;213388;1276;139853;-72
2022/10/02 14:39:11;;;;;;;6.10;2.90;;;;;;;15.75;66.58;99266.11;213741;1276;140044;-71
2022/10/02 14:44:13;;;;;;;2.30;1.20;;;;;;;15.59;66.54;99268.30;213723;1276;140227;-68
2022/10/02 14:49:21;;;;;;;3.60;1.60;;;;;;;15.43;66.35;99272.36;213470;1276;139421;-68
2022/10/02 14:54:57;;;;;;;3.90;1.50;;;;;;;15.33;66.55;99271.70;213299;1276;142093;-66
2022/10/02 15:00:13;;;;;;;7.20;2.60;;;;;;;15.32;66.35;99264.58;213247;1275;140809;-72
2022/10/02 15:05:38;;;;;;;1.60;1.30;;;;;;;15.25;66.41;99262.91;213744;1276;141163;-70
2022/10/02 15:10:44;;;;;;;4.50;1.80;;;;;;;15.13;66.48;99267.42;214398;1276;140625;-72
2022/10/02 15:21:27;;;;;;;3.80;1.60;;;;;;;14.78;66.78;99272.27;213991;1276;141169;-71
2022/10/02 15:26:48;;;;;;;3.60;1.30;;;;;;;14.55;66.74;99274.55;215700;1274;140324;-72
2022/10/02 15:32:17;;;;;;;2.40;1.80;;;;;;;14.36;67.08;99277.83;214171;1276;140696;-72
2022/10/02 15:37:47;;;;;;;4.40;1.00;;;;;;;14.17;67.46;99277.40;214619;1275;140357;-71
2022/10/02 15:42:55;;;;;;;3.00;1.70;;;;;;;14.01;67.51;99272.80;215386;1276;141662;-71
2022/10/02 15:48:41;;;;;;;6.20;2.00;;;;;;;13.82;67.82;99270.75;214567;1276;142322;-71
2022/10/02 15:53:54;;;;;;;2.90;1.50;;;;;;;13.77;68.51;99275.63;215510;1276;140736;-71
2022/10/02 15:59:24;;;;;;;1.80;1.70;;;;;;;13.67;68.65;99280.50;213448;1276;140689;-70
2022/10/02 16:04:49;;;;;;;3.50;2.50;;;;;;;13.56;68.87;99272.81;214129;1276;140010;-70
2022/10/02 16:09:53;;;;;;;5.20;2.10;;;;;;;13.49;69.40;99272.54;214224;1276;141113;-70
2022/10/02 16:14:59;;;;;;;4.60;1.40;;;;;;;13.40;69.42;99279.60;214655;1276;140448;-71
2022/10/02 16:20:21;;;;;;;3.40;1.90;;;;;;;13.33;69.55;99281.39;213248;1276;140178;-70
2022/10/02 16:25:48;;;;;;;5.50;2.00;;;;;;;13.27;69.80;99281.64;213187;1276;141451;-71
2022/10/02 16:30:52;;;;;;;3.00;1.70;;;;;;;13.15;70.25;99284.63;213001;1276;140016;-67
2022/10/02 16:36:28;;;;;;;2.50;1.90;;;;;;;13.03;70.44;99286.02;213551;1276;139837;-70
2022/10/02 16:41:41;;;;;;;3.50;1.50;;;;;;;12.87;70.53;99291.13;213898;1276;140671;-71
2022/10/02 16:46:52;;;;;;;1.80;1.20;;;;;;;12.78;71.11;99295.48;213406;1276;141561;-70
2022/10/02 16:52:19;;;;;;;1.90;1.30;;;;;;;12.72;71.20;99295.17;214078;1276;141076;-70
2022/10/02 16:57:50;;;;;;;1.40;1.30;;;;;;;12.71;71.42;99294.05;213337;1276;142379;-70
2022/10/02 17:03:06;;;;;;;14.40;3.60;;;;;;;12.59;71.55;99297.61;214231;1276;141300;-70
2022/10/02 17:08:19;;;;;;;2.50;1.80;;;;;;;12.54;71.83;99302.61;213453;1276;142350;-70
2022/10/02 17:13:31;;;;;;;6.00;2.80;;;;;;;12.50;72.06;99304.90;213733;1276;143472;-70
2022/10/02 17:18:49;;;;;;;5.60;2.20;;;;;;;12.46;72.39;99305.61;214068;1276;142416;-67
2022/10/02 17:24:21;;;;;;;6.20;3.40;;;;;;;12.43;72.81;99305.69;213264;1276;237468;-70
2022/10/02 17:29:33;;;;;;;5.10;2.70;;;;;;;12.39;73.26;99302.20;214884;1278;140838;-71
2022/10/02 17:34:49;;;;;;;5.70;3.00;;;;;;;12.42;73.67;99305.64;214342;1276;140444;-70
2022/10/02 17:39:57;;;;;;;7.50;3.20;;;;;;;12.41;73.68;99302.96;215082;1276;139775;-71
2022/10/02 17:45:15;;;;;;;10.20;4.80;;;;;;;12.37;73.69;99296.40;215807;1276;141191;-71
2022/10/02 17:50:37;;;;;;;7.60;3.10;;;;;;;12.35;73.83;99302.00;215808;1276;142422;-71
2022/10/02 17:56:26;;;;;;;6.80;3.40;;;;;;;12.31;73.73;99297.85;215724;1276;142056;-71
2022/10/02 18:02:03;;;;;;;9.40;3.30;;;;;;;12.23;73.95;99302.12;214993;1276;141056;-71
2022/10/02 18:07:24;;;;;;;7.20;3.20;;;;;;;12.09;73.77;99305.02;213452;1276;141428;-70
2022/10/02 18:12:43;;;;;;;4.00;2.80;;;;;;;12.07;73.84;99307.83;214765;1276;141905;-70
2022/10/02 18:17:56;;;;;;;5.50;2.70;;;;;;;11.99;73.98;99310.00;213665;1276;142062;-67
2022/10/02 18:23:14;;;;;;;7.10;3.70;;;;;;;11.95;74.06;99315.56;213400;1276;140840;-70
2022/10/02 18:28:30;;;;;;;6.40;3.00;;;;;;;11.86;73.95;99316.14;213582;1276;140575;-71
2022/10/02 18:33:45;;;;;;;6.00;3.40;;;;;;;11.80;74.09;99325.76;213847;1276;141153;-70
2022/10/02 18:38:59;;;;;;;3.20;2.70;;;;;;;11.74;73.99;99328.06;214335;1275;140599;-71
2022/10/02 18:44:34;;;;;;;4.30;2.90;;;;;;;11.60;74.19;99335.08;214135;1276;140237;-70
2022/10/02 18:49:46;;;;;;;5.50;2.70;;;;;;;11.49;74.02;99342.48;213638;1276;141489;-71
2022/10/02 18:55:05;;;;;;;5.40;2.30;;;;;;;11.42;74.36;99348.16;214242;1276;141656;-70
2022/10/02 19:00:17;;;;;;;4.00;3.10;;;;;;;11.36;74.25;99346.64;213037;1276;140797;-69
2022/10/02 19:05:25;;;;;;;9.10;2.90;;;;;;;11.29;74.60;99355.05;213045;1276;139649;-71
2022/10/02 19:10:31;;;;;;;3.70;2.80;;;;;;;11.20;74.84;99359.21;213787;1276;140084;-71
2022/10/02 19:15:36;;;;;;;4.00;2.60;;;;;;;11.16;75.03;99363.48;214101;1277;141016;-70
2022/10/02 19:20:54;;;;;;;7.70;2.50;;;;;;;11.15;75.25;99363.48;212971;1278;140893;-69
2022/10/02 19:26:03;;;;;;;8.50;3.40;;;;;;;11.18;75.28;99372.42;213600;1276;141014;-70
2022/10/02 19:31:10;;;;;;;2.70;2.40;;;;;;;11.21;75.73;99370.64;213037;1276;141830;-71
2022/10/02 19:36:20;;;;;;;4.50;3.00;;;;;;;11.19;75.63;99369.55;214125;1276;140288;-70
2022/10/02 19:41:24;;;;;;;3.90;3.10;;;;;;;11.16;75.75;99366.48;215476;1276;139910;-70
2022/10/02 19:46:39;;;;;;;9.90;3.30;;;;;;;11.16;75.83;99367.11;215948;1276;141375;-72
2022/10/02 19:51:46;;;;;;;12.50;5.20;;;;;;;11.20;75.81;99371.00;215267;1273;140919;-71
2022/10/02 19:56:56;;;;;;;5.40;3.60;;;;;;;11.17;75.86;99375.50;215566;1277;140399;-70
2022/10/02 20:02:30;;;;;;;3.70;2.80;;;;;;;11.19;76.04;99377.02;215134;1276;140566;-74
2022/10/02 20:07:37;;;;;;;3.20;2.80;;;;;;;11.22;76.13;99379.89;214605;1276;141135;-74
2022/10/02 20:12:57;;;;;;;4.70;3.20;;;;;;;11.25;76.30;99377.41;214373;1276;141033;-69
2022/10/02 20:18:03;;;;;;;3.60;2.40;;;;;;;11.23;76.17;99375.27;214637;1277;142064;-72
2022/10/02 20:23:27;;;;;;;7.10;5.10;;;;;;;11.11;76.18;99376.80;213010;1277;141569;-70
2022/10/02 20:28:45;;;;;;;5.90;3.80;;;;;;;11.03;76.33;99374.73;213920;1277;143329;-71
2022/10/02 20:33:53;;;;;;;7.20;3.50;;;;;;;11.02;76.59;99380.40;213120;1277;143102;-72
2022/10/02 20:39:00;;;;;;;7.50;4.40;;;;;;;10.96;76.58;99377.27;213408;1276;141668;-71
2022/10/02 20:44:05;;;;;;;6.70;4.60;;;;;;;10.85;76.83;99381.30;213179;1277;142021;-71
2022/10/02 20:49:48;;;;;;;6.30;4.40;;;;;;;10.72;76.58;99381.92;213191;1277;140382;-70
2022/10/02 20:55:20;;;;;;;7.10;3.80;;;;;;;10.57;76.74;99386.01;214491;1276;140982;-67
2022/10/02 21:00:27;;;;;;;3.90;3.00;;;;;;;10.50;77.02;99388.39;213577;1277;141024;-69
2022/10/02 21:06:17;;;;;;;6.00;3.60;;;;;;;10.45;77.16;99389.27;215312;1276;140845;-70
2022/10/02 21:11:28;;;;;;;;;;;;;;;10.37;77.27;99383.84;214585;1276;140438;-69
2022/10/02 21:17:00;;;;;;;3.40;2.40;;;;;;;10.33;77.42;99388.94;214656;1276;128195;-71
2022/10/02 21:22:21;;;;;;;4.00;2.70;;;;;;;10.24;77.21;99393.03;214336;1276;140605;-74
2022/10/02 21:27:48;;;;;;;7.30;3.80;;;;;;;10.13;77.61;99389.14;214501;1276;140601;-72
2022/10/02 21:33:04;;;;;;;4.00;2.90;;;;;;;10.05;77.45;99395.52;214054;1276;141635;-71
2022/10/02 21:38:45;;;;;;;2.70;2.40;;;;;;;9.97;77.78;99392.76;215151;1276;141254;-70
2022/10/02 21:44:17;;;;;;;5.00;3.00;;;;;;;9.90;77.87;99392.77;215910;1276;141174;-68
2022/10/02 21:49:35;;;;;;;4.00;2.80;;;;;;;9.91;78.54;99391.94;213368;1277;143422;-70
2022/10/02 21:55:06;;;;;;;4.50;3.20;;;;;;;9.99;78.71;99387.47;215437;1276;694803;-71
2022/10/02 22:00:30;;;;;;;3.20;2.40;;;;;;;10.07;78.81;99380.33;215705;1276;140746;-71
2022/10/02 22:05:51;;;;;;;5.00;3.40;;;;;;;10.06;78.72;99377.32;213841;1276;140461;-68
2022/10/02 22:11:18;;;;;;;5.30;2.80;;;;;;;10.04;78.90;99379.36;214884;1276;161187;-69
2022/10/02 22:16:55;;;;;;;4.40;3.50;;;;;;;10.07;79.18;99377.98;213879;1276;161094;-68
2022/10/02 22:22:33;;;;;;;6.10;5.20;;;;;;;10.13;79.31;99379.97;212551;1277;143432;-70
2022/10/02 22:28:03;;;;;;;10.20;3.70;;;;;;;10.06;79.29;99376.04;213704;1275;140757;-69
2022/10/02 22:33:11;;;;;;;9.60;4.20;;;;;;;10.00;79.56;99375.55;213683;1276;141947;-69
2022/10/02 22:38:26;;;;;;;8.80;3.90;;;;;;;10.03;79.63;99374.85;213401;1276;142154;-71
2022/10/02 22:43:50;;;;;;;7.30;3.30;;;;;;;9.95;79.53;99368.64;213744;1276;141692;-68
2022/10/02 22:49:01;;;;;;;11.10;4.10;;;;;;;9.87;79.68;99370.58;213014;1276;141319;-70
2022/10/02 22:54:16;;;;;;;4.10;3.60;;;;;;;9.84;80.00;99368.74;213246;1277;141036;-69
2022/10/02 22:59:40;;;;;;;8.00;3.30;;;;;;;9.83;80.02;99365.70;213270;1276;142731;-69
2022/10/02 23:04:51;;;;;;;10.10;3.90;;;;;;;9.82;80.16;99365.80;214199;1276;140545;-72
2022/10/02 23:10:16;;;;;;;5.90;4.10;;;;;;;9.78;80.14;99363.27;213595;1276;140685;-69
2022/10/02 23:15:41;;;;;;;4.20;3.30;;;;;;;9.74;80.34;99365.61;213874;1276;141179;-68
2022/10/02 23:21:06;;;;;;;7.70;3.90;;;;;;;9.76;80.42;99369.15;214227;1276;141219;-68
2022/10/02 23:26:17;;;;;;;8.90;4.60;;;;;;;9.80;80.90;99371.61;213958;1276;141248;-70
2022/10/02 23:31:40;;;;;;;9.00;3.20;;;;;;;9.88;80.81;99375.10;214210;1276;142084;-70
2022/10/02 23:36:51;;;;;;;9.10;3.50;;;;;;;9.91;80.69;99377.52;214212;1276;140912;-69
2022/10/02 23:41:57;;;;;;;5.90;2.60;;;;;;;9.95;80.87;99380.35;214675;1276;141716;-68
2022/10/02 23:47:24;;;;;;;7.60;2.70;;;;;;;10.01;80.58;99380.46;215533;1276;141449;-71
2022/10/02 23:52:45;;;;;;;2.30;2.20;;;;;;;10.03;80.47;99380.30;215701;1276;142442;-70
2022/10/02 23:58:25;;;;;;;8.00;2.40;;;;;;;10.00;80.20;99378.90;215264;1276;142098;-68
